Terminal Aerodrome Forecast
Issued by NWS Wilmington, OH

Current Version | Previous Version | Graphics & Text | Print | Product List | Glossary On
Versions: 1 2 3 4 5 6 7 8 9 10 11 12 13 14 15 16 17
000
FTUS41 KILN 291700
TAFCMH
TAF
KCMH 291733Z 2918/3018 27012G20KT P6SM SCT045
     FM292000 29011KT P6SM OVC040
     FM300300 31005KT P6SM OVC035
     FM301300 29003KT P6SM SCT035=

USA.gov is the U.S. government's official web portal to all federal, state and local government web resources and services.